Airfield :
LOGIN :

Register | Disclaimer

   EN    FR    IT 

 










Legend :    VFR   Marginal VFR   IFR   Intensive IFR   Very Intensive IFR
Visi :
Ceiling :
>= 8 km
>= 3000ft
5 to 8 km
1000 to 3000 ft
1500m to 5 km
500 to 1000 ft
800 to 1500m
200 to 500 ft
< 800m
< 200 ft
Symbols :   Thunderstorms  Fog  Heavy snow  Heavy precipitations  Wind > 20 kt
SIGMETs :     Misc.  Thunderstorms  Icing  Turbulence  Mountain Waves  Volcanic Ashes







- Airport Elevation : 681 ft
- IATA code : LBA
- Download approach charts


EGNM - Leeds Bradford

CURRENT METAR :
  • 182220Z 21011KT 180V250 9999 FEW020 15/13 Q1005

EXPIRED METARs :
  • 182150Z 22012KT 180V240 9999 -RA SCT010 15/13 Q1005
  • 182120Z 20010KT 180V240 9999 -RA SCT012 15/14 Q1005
  • 182050Z 19010KT 160V240 9999 -RA SCT015 15/14 Q1005
  • 182020Z 21012KT 180V240 9999 -SHRA SCT020 16/14 Q1005
  • 181950Z 21013KT 180V240 9999 -SHRA FEW030 SCT040 17/13 Q1005

TAF TAF EGNM
Valid from the 18 at 18:00 until the 19 at 18:00 UTC


181704Z 1818/1918 20012KT 9999 SCT025
PROB30
TEMPO 1818/1823 22018G28KT 4000 SHRA BKN012TCU
TEMPO 1905/1908 21015G25KT
BECMG 1908/1911 21022KT
PROB40
TEMPO 1908/1911 20025G35KT
BECMG 1911/1914 24022KT
PROB40
TEMPO 1911/1914 23028G42KT 3000 +SHRA BKN012
ATIS : +44 113 250 9696 (x2489)
No reported NOTAMs for that airfield.
1 SIGMET reported for the London FIR (EGTT) :
 
Severe mountain waves
EGTT SIGMET 10 VALID 182200/190200 EGRR
EGTT LONDON FIR SEV MTW FCST WI N5500 E00203 - N5221 E00156 - N5039 W00347 - N5218 W00357 - N5500 W00238 - N5500 E00203 FL040/240 STNR WKN=



MET'MAP, your aeronautical weather chart ! - Copyright ORBIFLY December 2007 - Disclaimer

ORBIFLY MET'MAP TEAM :

Programming & Development : Alexandra Zaïnal
Concept & Development : Baudouin d'Aumeries
Co-Development & Prog : Marc-Olivier Méhu
Technical & hardware support : Manuel Goepfert

Contact : metmap@orbifly.com




SOURCES & CREDITS :

   NOAA